Flight Track Log - Related Links

Times and Time Zones

All times are in EDT time to prevent confusion due to time zone crossing. See the AIE860 flight status page for this flight to view local times or setup timezone preferences in your user account.

Time Position Orientation Groundspeed Altitude Reporting Facility
EDT Latitude Longitude Course Direction KTS MPH feet Rate Location/Type
Sat 16:57:00 61.3959 -75.8993 188° South  Level Estimated
Sat 16:58:00 61.3304 -75.9150 187° South  Level FlightAware Approximate
Sat 16:59:00 61.2649 -75.9306 187° South  Level FlightAware Approximate
Sat 17:00:00 61.1995 -75.9462 187° South  Level FlightAware Approximate
Sat 17:01:00 61.1342 -75.9649 187° South  Level Estimated
Sat 17:02:00 61.0688 -75.9818 187° South  Level FlightAware Approximate
Sat 17:03:00 61.0034 -75.9987 187° South  Level FlightAware Approximate
Sat 17:04:00 60.9381 -76.0172 188° South  Level Estimated
Sat 17:05:00 60.8728 -76.0361 188° South  Level FlightAware Approximate
Sat 17:06:00 60.8075 -76.0549 188° South  Level FlightAware Approximate
Sat 17:07:00 60.7422 -76.0732 188° South  Level Estimated
Sat 17:08:00 60.6769 -76.0913 188° South  Level FlightAware Approximate
Sat 17:09:00 60.6116 -76.1093 188° South  Level FlightAware Approximate
Sat 17:10:00 60.5463 -76.1272 188° South  Level FlightAware Approximate
Sat 17:11:00 60.4810 -76.1451 188° South  Level FlightAware Approximate
Sat 17:12:00 60.4156 -76.1629 188° South  Level FlightAware Approximate
Sat 17:13:00 60.3503 -76.1806 188° South  Level FlightAware Approximate
Sat 17:14:00 60.2850 -76.1982 188° South  Level FlightAware Approximate
Sat 17:15:00 60.2197 -76.2158 188° South  Level FlightAware Approximate
Sat 17:16:00 60.1543 -76.2333 188° South  Level FlightAware Approximate
Sat 17:17:00 60.0890 -76.2508 188° South  Level FlightAware Approximate
Sat 17:18:00 60.0236 -76.2681 188° South  Level FlightAware Approximate
Sat 17:19:00 59.9583 -76.2854 188° South  Level FlightAware Approximate
Sat 17:20:00 59.8930 -76.3027 188° South  Level FlightAware Approximate
Sat 17:21:00 59.8276 -76.3198 188° South  Level FlightAware Approximate
Sat 17:22:00 59.7623 -76.3369 188° South  Level FlightAware Approximate
Sat 17:23:00 59.6969 -76.3540 187° South  Level FlightAware Approximate
Sat 17:24:00 59.6316 -76.3709 187° South  Level FlightAware Approximate
Sat 17:25:00 59.5662 -76.3878 187° South  Level FlightAware Approximate
Sat 17:26:00 59.5009 -76.4046 187° South  Level FlightAware Approximate
Sat 17:27:00 59.4355 -76.4214 187° South  Level FlightAware Approximate
Sat 17:28:00 59.3701 -76.4381 187° South  Level FlightAware Approximate
Sat 17:29:00 59.3048 -76.4548 187° South  Level FlightAware Approximate
Sat 17:30:00 59.2394 -76.4713 187° South  Level FlightAware Approximate
Sat 17:31:00 59.1740 -76.4878 187° South  Level FlightAware Approximate
Sat 17:32:00 59.1087 -76.5043 187° South  Level FlightAware Approximate
Sat 17:33:00 59.0433 -76.5207 187° South  Level FlightAware Approximate
Sat 17:34:00 58.9779 -76.5370 187° South  Level FlightAware Approximate
Sat 17:35:00 58.9126 -76.5532 187° South  Level FlightAware Approximate
Sat 17:36:00 58.8472 -76.5694 187° South  Level FlightAware Approximate
Sat 17:37:00 58.7818 -76.5856 187° South  Level FlightAware Approximate
Sat 17:38:00 58.7164 -76.6017 187° South  Level FlightAware Approximate
Sat 17:39:00 58.6510 -76.6177 187° South  Level FlightAware Approximate
Sat 17:40:00 58.5856 -76.6336 187° South  Level FlightAware Approximate
Sat 17:41:00 58.5202 -76.6495 187° South  Level FlightAware Approximate
Sat 17:42:00 58.4549 -76.6654 187° South  Level FlightAware Approximate
Sat 17:43:00 58.3895 -76.6812 187° South  Level FlightAware Approximate
Sat 17:44:00 58.3241 -76.6969 187° South  Level FlightAware Approximate
Sat 17:45:00 58.2587 -76.7125 187° South  Level FlightAware Approximate
Sat 17:46:00 58.1933 -76.7281 187° South  Level FlightAware Approximate
Sat 17:47:00 58.1279 -76.7437 187° South  Level FlightAware Approximate
Sat 17:48:00 58.0625 -76.7592 187° South  Level FlightAware Approximate
Sat 17:49:00 57.9971 -76.7746 187° South  Level FlightAware Approximate
Sat 17:50:00 57.9317 -76.7900 187° South  Level FlightAware Approximate
Sat 17:51:00 57.8663 -76.8053 187° South  Level FlightAware Approximate
Sat 17:52:00 57.8009 -76.8206 187° South  Level FlightAware Approximate
Sat 17:53:00 57.7355 -76.8358 187° South  Level FlightAware Approximate
Sat 17:54:00 57.6701 -76.8510 187° South  Level FlightAware Approximate
Sat 17:55:00 57.6046 -76.8661 187° South  Level FlightAware Approximate
Sat 17:56:00 57.5392 -76.8811 187° South  Level FlightAware Approximate
Sat 17:57:00 57.4738 -76.8961 187° South  Level FlightAware Approximate
Sat 17:58:00 57.4084 -76.9110 187° South  Level FlightAware Approximate
Sat 17:59:00 57.3430 -76.9259 187° South  Level FlightAware Approximate
Sat 18:00:00 57.2775 -76.9408 187° South  Level FlightAware Approximate
Sat 18:01:00 57.2121 -76.9555 187° South  Level FlightAware Approximate
Sat 18:02:00 57.1467 -76.9703 187° South  Level FlightAware Approximate
Sat 18:03:00 57.0813 -76.9849 187° South  Level FlightAware Approximate
Sat 18:04:00 57.0158 -76.9996 187° South  Level FlightAware Approximate
Sat 18:05:00 56.9504 -77.0142 187° South  Level FlightAware Approximate
Sat 18:06:00 56.8850 -77.0287 187° South  Level FlightAware Approximate
Sat 18:07:00 56.8195 -77.0431 187° South  Level FlightAware Approximate
Sat 18:08:00 56.7541 -77.0576 187° South  Level FlightAware Approximate
Sat 18:09:00 56.6887 -77.0719 187° South  Level FlightAware Approximate
Sat 18:10:00 56.6232 -77.0863 187° South  Level FlightAware Approximate
Sat 18:11:00 56.5578 -77.1005 187° South  Level FlightAware Approximate
Sat 18:12:00 56.4923 -77.1147 187° South  Level FlightAware Approximate
Sat 18:13:00 56.4269 -77.1289 187° South  Level FlightAware Approximate
Sat 18:14:00 56.3615 -77.1431 187° South  Level FlightAware Approximate
Sat 18:15:00 56.2960 -77.1571 187° South  Level FlightAware Approximate
Sat 18:16:00 56.2305 -77.1712 187° South  Level FlightAware Approximate
Sat 18:17:00 56.1651 -77.1851 187° South  Level FlightAware Approximate
Sat 18:17:30 56.4833 -77.1500 186° South 220 253 24,000  Level Montreal Center
Sat 18:18:00 56.0997 -77.1991 187° South  Level FlightAware Approximate
Sat 18:18:30 56.4167 -77.1500 180° South 230 265 24,000  Level Montreal Center
Sat 18:19:00 56.0342 -77.2130 187° South  Level FlightAware Approximate
Sat 18:19:30 56.3667 -77.1833 200° South 230 265 24,000  Level Montreal Center
Sat 18:20:00 55.9688 -77.2271 186° South  Level Estimated
Sat 18:20:30 56.3000 -77.1667 172° South 230 265 24,000  Level Montreal Center
Sat 18:21:00 55.9033 -77.2403 186° South  Level FlightAware Approximate
Sat 18:21:30 56.2333 -77.1667 180° South 230 265 24,000  Level Montreal Center
Sat 18:22:00 55.8378 -77.2534 186° South  Level FlightAware Approximate
Sat 18:22:30 56.1833 -77.2000 200° South 220 253 24,000  Level Montreal Center
Sat 18:23:30 56.1167 -77.2000 180° South 230 265 24,000  Level Montreal Center
Sat 18:24:30 56.0500 -77.2333 196° South 220 253 24,000  Level Montreal Center
Sat 18:25:30 55.9833 -77.2167 172° South 230 265 24,000  Level Montreal Center
Sat 18:27:00 55.8852 -77.2377 187° South  Level FlightAware Approximate
Sat 18:28:30 55.7833 -77.2833 187° South 230 265 24,000  Level Montreal Center
Sat 18:29:30 55.7167 -77.3000 188° South 230 265 24,000  Level Montreal Center
Sat 18:30:30 55.6500 -77.3000 180° South 230 265 24,000  Level Montreal Center
Sat 18:31:30 55.6000 -77.3333 201° Southwest 230 265 24,000  Level Montreal Center
Sat 18:32:30 55.5333 -77.3333 180° South 230 265 24,000  Level Montreal Center
Sat 18:33:30 55.4667 -77.3500 188° South 230 265 24,000  Level Montreal Center
Sat 18:34:30 55.4000 -77.3500 180° South 230 265 24,000  Level Montreal Center
Sat 18:35:30 55.3500 -77.3833 201° Southwest 230 265 24,000  Level Montreal Center
Sat 18:36:30 55.2833 -77.3833 180° South 230 265 24,000  Level Montreal Center
Sat 18:37:30 55.2167 -77.4000 188° South 230 265 24,000  Level Montreal Center
Sat 18:38:30 55.1500 -77.4000 180° South 230 265 24,000  Level Montreal Center
Sat 18:39:30 55.0833 -77.4333 196° South 230 265 24,000  Level Montreal Center
Sat 18:40:30 55.0167 -77.4333 180° South 230 265 24,000  Level Montreal Center
Sat 18:41:30 54.9500 -77.4500 188° South 230 265 24,000  Level Montreal Center
Sat 18:42:30 54.9000 -77.4500 180° South 230 265 24,000  Level Montreal Center
Sat 18:43:30 54.8333 -77.4833 196° South 230 265 24,000  Level Montreal Center
Sat 18:44:30 54.7667 -77.4833 180° South 230 265 24,000  Level Montreal Center
Sat 18:45:30 54.7000 -77.5000 188° South 230 265 24,000  Level Montreal Center
Sat 18:46:30 54.6500 -77.5000 180° South 230 265 24,000 -650 Level Montreal Center
Sat 18:47:30 54.5833 -77.5333 196° South 240 276 22,700 -1,550 Descending Montreal Center
Sat 18:48:30 54.5167 -77.5333 180° South 260 299 20,900 -1,800 Descending Montreal Center
Sat 18:49:30 54.4167 -77.5500 186° South 270 311 19,100 -1,800 Descending Montreal Center
Sat 18:50:30 54.3500 -77.5833 196° South 270 311 17,300 -1,750 Descending Montreal Center
Sat 18:51:30 54.2667 -77.5833 180° South 270 311 15,600 -1,800 Descending Montreal Center
Sat 18:52:30 54.2000 -77.6000 188° South 270 311 13,700 -1,950 Descending Montreal Center
Sat 18:53:30 54.1167 -77.6333 193° South 280 322 11,700 -1,850 Descending Montreal Center
Sat 18:54:30 54.0333 -77.6333 180° South 270 311 10,000 -1,750 Descending Montreal Center
Sat 18:55:30 53.9667 -77.6500 188° South 270 311 8,200 -1,700 Descending Montreal Center
Sat 18:56:30 53.9000 -77.6500 180° South 260 299 6,600 -1,450 Descending Montreal Center
Sat 18:57:30 53.8333 -77.6833 196° South 250 288 5,300 -1,350 Descending Montreal Center
Sat 18:58:30 53.7667 -77.7000 188° South 230 265 3,900 -1,250 Descending Montreal Center
Sat 18:59:30 53.7167 -77.7333 202° Southwest 200 230 2,800 -900 Descending Montreal Center
Sat 19:00:30 53.6833 -77.7500 196° South 160 184 2,100 -700 Descending Montreal Center
Sat 19:02:00 53.6253 -77.7042 188° South  Level Estimated

Login

Don't have an account? Register now (free) for customized features, flight alerts, and more!